sensor_id;sensor_type;location;lat;lon;timestamp;temperature;humidity
78438;SHT31;67736;51.978;5.656;2023-04-12T00:02:15;12.5;62.8
78438;SHT31;67736;51.978;5.656;2023-04-12T00:04:45;12.5;62.8
78438;SHT31;67736;51.978;5.656;2023-04-12T00:07:20;12.4;63.2
78438;SHT31;67736;51.978;5.656;2023-04-12T00:09:50;12.4;63.8
78438;SHT31;67736;51.978;5.656;2023-04-12T00:12:21;12.4;64.0
78438;SHT31;67736;51.978;5.656;2023-04-12T00:14:53;12.3;64.4
78438;SHT31;67736;51.978;5.656;2023-04-12T00:17:22;12.3;64.9
78438;SHT31;67736;51.978;5.656;2023-04-12T00:19:52;12.2;65.1
78438;SHT31;67736;51.978;5.656;2023-04-12T00:22:24;12.2;65.0
78438;SHT31;67736;51.978;5.656;2023-04-12T00:24:54;12.2;65.3
78438;SHT31;67736;51.978;5.656;2023-04-12T00:27:24;12.1;65.8
78438;SHT31;67736;51.978;5.656;2023-04-12T00:29:53;12.1;65.9
78438;SHT31;67736;51.978;5.656;2023-04-12T00:32:23;12.1;65.9
78438;SHT31;67736;51.978;5.656;2023-04-12T00:34:53;12.0;66.1
78438;SHT31;67736;51.978;5.656;2023-04-12T00:37:24;12.0;65.8
78438;SHT31;67736;51.978;5.656;2023-04-12T00:39:54;11.9;66.4
78438;SHT31;67736;51.978;5.656;2023-04-12T00:42:23;11.9;66.5
78438;SHT31;67736;51.978;5.656;2023-04-12T00:44:54;11.8;67.1
78438;SHT31;67736;51.978;5.656;2023-04-12T00:47:23;11.8;67.3
78438;SHT31;67736;51.978;5.656;2023-04-12T00:49:56;11.7;67.5
78438;SHT31;67736;51.978;5.656;2023-04-12T00:52:25;11.7;67.6
78438;SHT31;67736;51.978;5.656;2023-04-12T00:55:02;11.7;67.8
78438;SHT31;67736;51.978;5.656;2023-04-12T00:57:35;11.6;68.1
78438;SHT31;67736;51.978;5.656;2023-04-12T01:00:08;11.6;68.3
78438;SHT31;67736;51.978;5.656;2023-04-12T01:02:39;11.6;68.5
78438;SHT31;67736;51.978;5.656;2023-04-12T01:05:16;11.5;68.7
78438;SHT31;67736;51.978;5.656;2023-04-12T01:07:53;11.5;69.0
78438;SHT31;67736;51.978;5.656;2023-04-12T01:10:36;11.5;69.1
78438;SHT31;67736;51.978;5.656;2023-04-12T01:13:20;11.4;69.3
78438;SHT31;67736;51.978;5.656;2023-04-12T01:16:01;11.4;69.2
78438;SHT31;67736;51.978;5.656;2023-04-12T01:18:36;11.4;69.8
78438;SHT31;67736;51.978;5.656;2023-04-12T01:21:14;11.3;69.9
78438;SHT31;67736;51.978;5.656;2023-04-12T01:23:56;11.3;69.8
78438;SHT31;67736;51.978;5.656;2023-04-12T01:26:32;11.3;69.9
78438;SHT31;67736;51.978;5.656;2023-04-12T01:29:07;11.2;69.7
78438;SHT31;67736;51.978;5.656;2023-04-12T01:31:39;11.2;69.9
78438;SHT31;67736;51.978;5.656;2023-04-12T01:34:11;11.2;70.2
78438;SHT31;67736;51.978;5.656;2023-04-12T01:36:44;11.1;70.3
78438;SHT31;67736;51.978;5.656;2023-04-12T01:39:15;11.1;70.1
78438;SHT31;67736;51.978;5.656;2023-04-12T01:41:45;11.1;70.3
78438;SHT31;67736;51.978;5.656;2023-04-12T01:44:16;11.1;70.3
78438;SHT31;67736;51.978;5.656;2023-04-12T01:46:47;11.1;70.4
78438;SHT31;67736;51.978;5.656;2023-04-12T01:49:20;11.1;70.6
78438;SHT31;67736;51.978;5.656;2023-04-12T01:52:00;11.1;70.4
78438;SHT31;67736;51.978;5.656;2023-04-12T01:54:40;11.0;70.7
78438;SHT31;67736;51.978;5.656;2023-04-12T01:57:08;11.0;71.0
78438;SHT31;67736;51.978;5.656;2023-04-12T01:59:41;11.0;70.9
78438;SHT31;67736;51.978;5.656;2023-04-12T02:02:12;11.0;71.3
78438;SHT31;67736;51.978;5.656;2023-04-12T02:04:43;11.0;71.0
78438;SHT31;67736;51.978;5.656;2023-04-12T02:07:14;11.0;71.1
78438;SHT31;67736;51.978;5.656;2023-04-12T02:09:45;11.0;71.2
78438;SHT31;67736;51.978;5.656;2023-04-12T02:12:16;10.9;71.5
78438;SHT31;67736;51.978;5.656;2023-04-12T02:14:46;10.9;71.6
78438;SHT31;67736;51.978;5.656;2023-04-12T02:17:18;10.9;71.5
78438;SHT31;67736;51.978;5.656;2023-04-12T02:19:48;10.9;71.5
78438;SHT31;67736;51.978;5.656;2023-04-12T02:22:17;10.9;71.9
78438;SHT31;67736;51.978;5.656;2023-04-12T02:24:47;10.9;71.8
78438;SHT31;67736;51.978;5.656;2023-04-12T02:27:17;10.9;71.9
78438;SHT31;67736;51.978;5.656;2023-04-12T02:29:47;10.8;71.9
78438;SHT31;67736;51.978;5.656;2023-04-12T02:32:17;10.8;71.7
78438;SHT31;67736;51.978;5.656;2023-04-12T02:34:47;10.8;71.4
78438;SHT31;67736;51.978;5.656;2023-04-12T02:37:18;10.8;71.3
78438;SHT31;67736;51.978;5.656;2023-04-12T02:39:51;10.8;71.2
78438;SHT31;67736;51.978;5.656;2023-04-12T02:42:23;10.8;71.3
78438;SHT31;67736;51.978;5.656;2023-04-12T02:44:52;10.8;71.2
78438;SHT31;67736;51.978;5.656;2023-04-12T02:47:22;10.8;71.1
78438;SHT31;67736;51.978;5.656;2023-04-12T02:49:56;10.8;71.2
78438;SHT31;67736;51.978;5.656;2023-04-12T02:52:25;10.8;70.9
78438;SHT31;67736;51.978;5.656;2023-04-12T02:54:56;10.8;71.0
78438;SHT31;67736;51.978;5.656;2023-04-12T02:57:26;10.8;70.9
78438;SHT31;67736;51.978;5.656;2023-04-12T02:59:56;10.8;70.7
78438;SHT31;67736;51.978;5.656;2023-04-12T03:02:25;10.8;71.2
78438;SHT31;67736;51.978;5.656;2023-04-12T03:04:55;10.7;71.3
78438;SHT31;67736;51.978;5.656;2023-04-12T03:07:26;10.7;71.2
78438;SHT31;67736;51.978;5.656;2023-04-12T03:10:00;10.7;71.3
78438;SHT31;67736;51.978;5.656;2023-04-12T03:12:33;10.7;71.2
78438;SHT31;67736;51.978;5.656;2023-04-12T03:15:03;10.7;71.1
78438;SHT31;67736;51.978;5.656;2023-04-12T03:17:33;10.7;71.4
78438;SHT31;67736;51.978;5.656;2023-04-12T03:20:07;10.7;71.4
78438;SHT31;67736;51.978;5.656;2023-04-12T03:22:40;10.7;71.1
78438;SHT31;67736;51.978;5.656;2023-04-12T03:25:10;10.7;71.2
78438;SHT31;67736;51.978;5.656;2023-04-12T03:27:39;10.7;71.4
78438;SHT31;67736;51.978;5.656;2023-04-12T03:30:11;10.6;71.5
78438;SHT31;67736;51.978;5.656;2023-04-12T03:32:41;10.6;71.2
78438;SHT31;67736;51.978;5.656;2023-04-12T03:35:11;10.6;71.6
78438;SHT31;67736;51.978;5.656;2023-04-12T03:37:41;10.6;71.7
78438;SHT31;67736;51.978;5.656;2023-04-12T03:40:12;10.6;71.9
78438;SHT31;67736;51.978;5.656;2023-04-12T03:42:42;10.6;72.2
78438;SHT31;67736;51.978;5.656;2023-04-12T03:45:12;10.6;72.6
78438;SHT31;67736;51.978;5.656;2023-04-12T03:47:42;10.6;72.5
78438;SHT31;67736;51.978;5.656;2023-04-12T03:50:12;10.6;72.3
78438;SHT31;67736;51.978;5.656;2023-04-12T03:52:43;10.6;72.6
78438;SHT31;67736;51.978;5.656;2023-04-12T03:55:13;10.5;72.5
78438;SHT31;67736;51.978;5.656;2023-04-12T03:57:46;10.5;72.8
78438;SHT31;67736;51.978;5.656;2023-04-12T04:00:19;10.5;73.0
78438;SHT31;67736;51.978;5.656;2023-04-12T04:02:50;10.5;72.9
78438;SHT31;67736;51.978;5.656;2023-04-12T04:05:23;10.5;73.2
78438;SHT31;67736;51.978;5.656;2023-04-12T04:07:52;10.5;73.4
78438;SHT31;67736;51.978;5.656;2023-04-12T04:10:24;10.5;73.5
78438;SHT31;67736;51.978;5.656;2023-04-12T04:12:54;10.5;73.5
78438;SHT31;67736;51.978;5.656;2023-04-12T04:15:24;10.5;73.5
78438;SHT31;67736;51.978;5.656;2023-04-12T04:17:54;10.5;73.5
78438;SHT31;67736;51.978;5.656;2023-04-12T04:20:24;10.5;73.3
78438;SHT31;67736;51.978;5.656;2023-04-12T04:22:54;10.5;73.7
78438;SHT31;67736;51.978;5.656;2023-04-12T04:25:26;10.5;73.8
78438;SHT31;67736;51.978;5.656;2023-04-12T04:27:56;10.5;73.7
78438;SHT31;67736;51.978;5.656;2023-04-12T04:30:28;10.5;73.7
78438;SHT31;67736;51.978;5.656;2023-04-12T04:33:00;10.4;73.8
78438;SHT31;67736;51.978;5.656;2023-04-12T04:35:30;10.4;74.1
78438;SHT31;67736;51.978;5.656;2023-04-12T04:38:01;10.4;74.2
78438;SHT31;67736;51.978;5.656;2023-04-12T04:40:31;10.4;74.2
78438;SHT31;67736;51.978;5.656;2023-04-12T04:43:01;10.4;74.5
78438;SHT31;67736;51.978;5.656;2023-04-12T04:45:31;10.4;74.4
78438;SHT31;67736;51.978;5.656;2023-04-12T04:48:02;10.4;74.5
78438;SHT31;67736;51.978;5.656;2023-04-12T04:50:32;10.4;74.5
78438;SHT31;67736;51.978;5.656;2023-04-12T04:53:02;10.4;74.2
78438;SHT31;67736;51.978;5.656;2023-04-12T04:55:33;10.4;74.3
78438;SHT31;67736;51.978;5.656;2023-04-12T04:58:04;10.4;74.2
78438;SHT31;67736;51.978;5.656;2023-04-12T05:00:34;10.4;74.4
78438;SHT31;67736;51.978;5.656;2023-04-12T05:03:05;10.4;74.5
78438;SHT31;67736;51.978;5.656;2023-04-12T05:05:36;10.4;74.6
78438;SHT31;67736;51.978;5.656;2023-04-12T05:08:06;10.4;74.8
78438;SHT31;67736;51.978;5.656;2023-04-12T05:10:38;10.5;74.7
78438;SHT31;67736;51.978;5.656;2023-04-12T05:13:10;10.5;74.7
78438;SHT31;67736;51.978;5.656;2023-04-12T05:15:41;10.5;74.4
78438;SHT31;67736;51.978;5.656;2023-04-12T05:18:10;10.5;74.4
78438;SHT31;67736;51.978;5.656;2023-04-12T05:20:40;10.5;74.5
78438;SHT31;67736;51.978;5.656;2023-04-12T05:23:12;10.5;74.5
78438;SHT31;67736;51.978;5.656;2023-04-12T05:25:46;10.5;74.4
78438;SHT31;67736;51.978;5.656;2023-04-12T05:28:16;10.5;74.7
78438;SHT31;67736;51.978;5.656;2023-04-12T05:30:45;10.5;74.7
78438;SHT31;67736;51.978;5.656;2023-04-12T05:33:15;10.5;74.7
78438;SHT31;67736;51.978;5.656;2023-04-12T05:35:45;10.5;74.9
78438;SHT31;67736;51.978;5.656;2023-04-12T05:38:17;10.5;75.0
78438;SHT31;67736;51.978;5.656;2023-04-12T05:40:47;10.5;75.1
78438;SHT31;67736;51.978;5.656;2023-04-12T05:43:19;10.5;75.1
78438;SHT31;67736;51.978;5.656;2023-04-12T05:45:49;10.6;75.2
78438;SHT31;67736;51.978;5.656;2023-04-12T05:48:20;10.6;75.3
78438;SHT31;67736;51.978;5.656;2023-04-12T05:50:53;10.6;75.1
78438;SHT31;67736;51.978;5.656;2023-04-12T05:53:23;10.6;75.1
78438;SHT31;67736;51.978;5.656;2023-04-12T05:55:57;10.7;75.1
78438;SHT31;67736;51.978;5.656;2023-04-12T05:58:27;10.7;75.0
78438;SHT31;67736;51.978;5.656;2023-04-12T06:00:57;10.7;74.8
78438;SHT31;67736;51.978;5.656;2023-04-12T06:03:26;10.7;75.0
78438;SHT31;67736;51.978;5.656;2023-04-12T06:05:59;10.7;75.1
78438;SHT31;67736;51.978;5.656;2023-04-12T06:08:32;10.7;75.2
78438;SHT31;67736;51.978;5.656;2023-04-12T06:11:02;10.7;75.3
78438;SHT31;67736;51.978;5.656;2023-04-12T06:13:35;10.8;75.2
78438;SHT31;67736;51.978;5.656;2023-04-12T06:16:05;10.8;75.1
78438;SHT31;67736;51.978;5.656;2023-04-12T06:18:34;10.8;75.2
78438;SHT31;67736;51.978;5.656;2023-04-12T06:21:04;10.8;75.0
78438;SHT31;67736;51.978;5.656;2023-04-12T06:23:35;10.9;75.0
78438;SHT31;67736;51.978;5.656;2023-04-12T06:26:05;10.9;75.1
78438;SHT31;67736;51.978;5.656;2023-04-12T06:28:34;10.9;75.2
78438;SHT31;67736;51.978;5.656;2023-04-12T06:31:04;10.9;75.3
78438;SHT31;67736;51.978;5.656;2023-04-12T06:33:34;10.9;75.1
78438;SHT31;67736;51.978;5.656;2023-04-12T06:36:05;10.9;75.1
78438;SHT31;67736;51.978;5.656;2023-04-12T06:38:35;11.0;75.3
78438;SHT31;67736;51.978;5.656;2023-04-12T06:41:05;11.0;75.2
78438;SHT31;67736;51.978;5.656;2023-04-12T06:43:35;11.1;74.9
78438;SHT31;67736;51.978;5.656;2023-04-12T06:46:05;11.1;75.0
78438;SHT31;67736;51.978;5.656;2023-04-12T06:48:35;11.1;74.9
78438;SHT31;67736;51.978;5.656;2023-04-12T06:51:06;11.1;74.8
78438;SHT31;67736;51.978;5.656;2023-04-12T06:53:36;11.1;74.8
78438;SHT31;67736;51.978;5.656;2023-04-12T06:56:06;11.1;74.9
78438;SHT31;67736;51.978;5.656;2023-04-12T06:58:37;11.1;75.0
78438;SHT31;67736;51.978;5.656;2023-04-12T07:01:08;11.2;75.1
78438;SHT31;67736;51.978;5.656;2023-04-12T07:03:40;11.2;75.0
78438;SHT31;67736;51.978;5.656;2023-04-12T07:06:10;11.2;75.0
78438;SHT31;67736;51.978;5.656;2023-04-12T07:08:39;11.3;74.8
78438;SHT31;67736;51.978;5.656;2023-04-12T07:11:11;11.3;74.9
78438;SHT31;67736;51.978;5.656;2023-04-12T07:13:42;11.3;74.6
78438;SHT31;67736;51.978;5.656;2023-04-12T07:16:11;11.4;74.4
78438;SHT31;67736;51.978;5.656;2023-04-12T07:18:44;11.4;74.7
78438;SHT31;67736;51.978;5.656;2023-04-12T07:21:14;11.4;74.7
78438;SHT31;67736;51.978;5.656;2023-04-12T07:23:45;11.5;74.4
78438;SHT31;67736;51.978;5.656;2023-04-12T07:26:17;11.5;74.2
78438;SHT31;67736;51.978;5.656;2023-04-12T07:28:48;11.6;74.4
78438;SHT31;67736;51.978;5.656;2023-04-12T07:31:17;11.6;74.5
78438;SHT31;67736;51.978;5.656;2023-04-12T07:33:47;11.7;74.2
78438;SHT31;67736;51.978;5.656;2023-04-12T07:36:17;11.7;74.2
78438;SHT31;67736;51.978;5.656;2023-04-12T07:38:48;11.7;73.9
78438;SHT31;67736;51.978;5.656;2023-04-12T07:41:22;11.8;74.1
78438;SHT31;67736;51.978;5.656;2023-04-12T07:43:52;11.8;73.8
78438;SHT31;67736;51.978;5.656;2023-04-12T07:46:21;11.9;74.1
78438;SHT31;67736;51.978;5.656;2023-04-12T07:48:52;11.9;73.8
78438;SHT31;67736;51.978;5.656;2023-04-12T07:51:21;11.9;74.3
78438;SHT31;67736;51.978;5.656;2023-04-12T07:53:51;12.0;74.3
78438;SHT31;67736;51.978;5.656;2023-04-12T07:56:21;12.0;73.3
78438;SHT31;67736;51.978;5.656;2023-04-12T07:58:50;12.1;73.5
78438;SHT31;67736;51.978;5.656;2023-04-12T08:01:20;12.1;73.3
78438;SHT31;67736;51.978;5.656;2023-04-12T08:03:49;12.1;71.6
78438;SHT31;67736;51.978;5.656;2023-04-12T08:06:19;12.2;71.7
78438;SHT31;67736;51.978;5.656;2023-04-12T08:08:48;12.2;71.3
78438;SHT31;67736;51.978;5.656;2023-04-12T08:11:18;12.3;70.7
78438;SHT31;67736;51.978;5.656;2023-04-12T08:13:49;12.3;70.9
78438;SHT31;67736;51.978;5.656;2023-04-12T08:16:19;12.4;71.1
78438;SHT31;67736;51.978;5.656;2023-04-12T08:18:49;12.4;70.9
78438;SHT31;67736;51.978;5.656;2023-04-12T08:21:19;12.5;71.0
78438;SHT31;67736;51.978;5.656;2023-04-12T08:23:49;12.5;70.8
78438;SHT31;67736;51.978;5.656;2023-04-12T08:26:18;12.6;70.4
78438;SHT31;67736;51.978;5.656;2023-04-12T08:28:48;12.6;70.1
78438;SHT31;67736;51.978;5.656;2023-04-12T08:31:18;12.7;69.6
78438;SHT31;67736;51.978;5.656;2023-04-12T08:33:47;12.7;70.0
78438;SHT31;67736;51.978;5.656;2023-04-12T08:36:17;12.8;69.5
78438;SHT31;67736;51.978;5.656;2023-04-12T08:38:47;12.8;70.4
78438;SHT31;67736;51.978;5.656;2023-04-12T08:41:20;12.8;69.9
78438;SHT31;67736;51.978;5.656;2023-04-12T08:43:52;12.9;69.3
78438;SHT31;67736;51.978;5.656;2023-04-12T08:46:22;12.9;69.3
78438;SHT31;67736;51.978;5.656;2023-04-12T08:48:54;13.0;69.7
78438;SHT31;67736;51.978;5.656;2023-04-12T08:51:27;13.0;69.1
78438;SHT31;67736;51.978;5.656;2023-04-12T08:53:58;13.1;69.8
78438;SHT31;67736;51.978;5.656;2023-04-12T08:56:28;13.2;68.6
78438;SHT31;67736;51.978;5.656;2023-04-12T08:58:59;13.2;68.3
78438;SHT31;67736;51.978;5.656;2023-04-12T09:01:29;13.3;67.8
78438;SHT31;67736;51.978;5.656;2023-04-12T09:04:05;13.3;68.3
78438;SHT31;67736;51.978;5.656;2023-04-12T09:06:35;13.4;68.7
78438;SHT31;67736;51.978;5.656;2023-04-12T09:09:04;13.5;68.4
78438;SHT31;67736;51.978;5.656;2023-04-12T09:11:34;13.5;67.2
78438;SHT31;67736;51.978;5.656;2023-04-12T09:14:21;13.6;67.1
78438;SHT31;67736;51.978;5.656;2023-04-12T09:16:51;13.7;66.8
78438;SHT31;67736;51.978;5.656;2023-04-12T09:19:32;13.7;66.7
78438;SHT31;67736;51.978;5.656;2023-04-12T09:22:02;13.8;65.1
78438;SHT31;67736;51.978;5.656;2023-04-12T09:24:46;13.9;66.7
78438;SHT31;67736;51.978;5.656;2023-04-12T09:27:16;14.0;63.6
78438;SHT31;67736;51.978;5.656;2023-04-12T09:29:47;14.1;63.6
78438;SHT31;67736;51.978;5.656;2023-04-12T09:32:25;14.2;62.9
78438;SHT31;67736;51.978;5.656;2023-04-12T09:34:57;14.3;60.6
78438;SHT31;67736;51.978;5.656;2023-04-12T09:37:27;14.3;61.8
78438;SHT31;67736;51.978;5.656;2023-04-12T09:40:01;14.4;60.5
78438;SHT31;67736;51.978;5.656;2023-04-12T09:42:34;14.4;60.9
78438;SHT31;67736;51.978;5.656;2023-04-12T09:45:18;14.5;61.7
78438;SHT31;67736;51.978;5.656;2023-04-12T09:47:49;14.6;61.8
78438;SHT31;67736;51.978;5.656;2023-04-12T09:50:21;14.6;60.2
78438;SHT31;67736;51.978;5.656;2023-04-12T09:52:54;14.7;59.1
78438;SHT31;67736;51.978;5.656;2023-04-12T09:55:26;14.7;60.0
78438;SHT31;67736;51.978;5.656;2023-04-12T09:58:01;14.8;59.2
78438;SHT31;67736;51.978;5.656;2023-04-12T10:00:32;14.9;59.4
78438;SHT31;67736;51.978;5.656;2023-04-12T10:03:03;14.9;58.5
78438;SHT31;67736;51.978;5.656;2023-04-12T10:05:35;15.0;58.9
78438;SHT31;67736;51.978;5.656;2023-04-12T10:08:06;15.1;58.2
78438;SHT31;67736;51.978;5.656;2023-04-12T10:10:39;15.1;59.0
78438;SHT31;67736;51.978;5.656;2023-04-12T10:13:11;15.2;57.7
78438;SHT31;67736;51.978;5.656;2023-04-12T10:15:42;15.3;56.4
78438;SHT31;67736;51.978;5.656;2023-04-12T10:18:17;15.3;57.2
78438;SHT31;67736;51.978;5.656;2023-04-12T10:20:46;15.4;56.9
78438;SHT31;67736;51.978;5.656;2023-04-12T10:23:17;15.4;57.1
78438;SHT31;67736;51.978;5.656;2023-04-12T10:25:48;15.4;56.1
78438;SHT31;67736;51.978;5.656;2023-04-12T10:28:20;15.4;56.3
78438;SHT31;67736;51.978;5.656;2023-04-12T10:30:49;15.3;57.3
78438;SHT31;67736;51.978;5.656;2023-04-12T10:33:25;15.3;57.9
78438;SHT31;67736;51.978;5.656;2023-04-12T10:35:57;15.2;59.4
78438;SHT31;67736;51.978;5.656;2023-04-12T10:38:30;15.2;57.2
78438;SHT31;67736;51.978;5.656;2023-04-12T10:41:11;15.2;54.6
78438;SHT31;67736;51.978;5.656;2023-04-12T10:43:42;15.2;51.2
78438;SHT31;67736;51.978;5.656;2023-04-12T10:46:47;15.2;51.3
78438;SHT31;67736;51.978;5.656;2023-04-12T10:49:18;15.1;50.7
78438;SHT31;67736;51.978;5.656;2023-04-12T10:52:12;15.1;52.2
78438;SHT31;67736;51.978;5.656;2023-04-12T10:54:43;15.1;54.0
78438;SHT31;67736;51.978;5.656;2023-04-12T10:57:46;15.1;53.4
78438;SHT31;67736;51.978;5.656;2023-04-12T11:00:16;15.1;53.2
78438;SHT31;67736;51.978;5.656;2023-04-12T11:03:05;15.1;53.4
78438;SHT31;67736;51.978;5.656;2023-04-12T11:06:00;15.2;54.4
78438;SHT31;67736;51.978;5.656;2023-04-12T11:08:31;15.3;53.5
78438;SHT31;67736;51.978;5.656;2023-04-12T11:11:18;15.3;55.0
78438;SHT31;67736;51.978;5.656;2023-04-12T11:13:53;15.4;53.5
78438;SHT31;67736;51.978;5.656;2023-04-12T11:16:23;15.4;52.9
78438;SHT31;67736;51.978;5.656;2023-04-12T11:18:53;15.5;53.7
78438;SHT31;67736;51.978;5.656;2023-04-12T11:21:24;15.5;54.9
78438;SHT31;67736;51.978;5.656;2023-04-12T11:23:54;15.5;52.5
78438;SHT31;67736;51.978;5.656;2023-04-12T11:26:28;15.5;52.4
78438;SHT31;67736;51.978;5.656;2023-04-12T11:29:07;15.6;53.6
78438;SHT31;67736;51.978;5.656;2023-04-12T11:31:43;15.6;54.1
78438;SHT31;67736;51.978;5.656;2023-04-12T11:34:14;15.6;53.0
78438;SHT31;67736;51.978;5.656;2023-04-12T11:36:46;15.6;53.1
78438;SHT31;67736;51.978;5.656;2023-04-12T11:39:17;15.6;52.1
78438;SHT31;67736;51.978;5.656;2023-04-12T11:41:48;15.6;48.9
78438;SHT31;67736;51.978;5.656;2023-04-12T11:44:20;15.5;44.9
78438;SHT31;67736;51.978;5.656;2023-04-12T11:46:50;15.5;45.8
78438;SHT31;67736;51.978;5.656;2023-04-12T11:49:21;15.3;43.7
78438;SHT31;67736;51.978;5.656;2023-04-12T11:52:04;15.2;46.0
78438;SHT31;67736;51.978;5.656;2023-04-12T11:54:35;15.1;46.7
78438;SHT31;67736;51.978;5.656;2023-04-12T11:57:05;15.1;47.5
78438;SHT31;67736;51.978;5.656;2023-04-12T11:59:34;15.1;48.0
78438;SHT31;67736;51.978;5.656;2023-04-12T12:02:05;15.1;49.8
78438;SHT31;67736;51.978;5.656;2023-04-12T12:04:35;15.1;51.5
78438;SHT31;67736;51.978;5.656;2023-04-12T12:07:05;15.1;52.2
78438;SHT31;67736;51.978;5.656;2023-04-12T12:09:35;15.1;51.9
78438;SHT31;67736;51.978;5.656;2023-04-12T12:12:05;15.1;49.9
78438;SHT31;67736;51.978;5.656;2023-04-12T12:14:35;15.1;49.6
78438;SHT31;67736;51.978;5.656;2023-04-12T12:17:11;15.2;47.4
78438;SHT31;67736;51.978;5.656;2023-04-12T12:19:43;15.2;45.3
78438;SHT31;67736;51.978;5.656;2023-04-12T12:22:14;15.3;45.0
78438;SHT31;67736;51.978;5.656;2023-04-12T12:24:49;15.3;43.8
78438;SHT31;67736;51.978;5.656;2023-04-12T12:27:22;15.4;44.0
78438;SHT31;67736;51.978;5.656;2023-04-12T12:29:54;15.4;43.4
78438;SHT31;67736;51.978;5.656;2023-04-12T12:32:23;15.4;41.7
78438;SHT31;67736;51.978;5.656;2023-04-12T12:34:55;15.5;43.2
78438;SHT31;67736;51.978;5.656;2023-04-12T12:37:26;15.5;44.2
78438;SHT31;67736;51.978;5.656;2023-04-12T12:40:04;15.6;43.3
78438;SHT31;67736;51.978;5.656;2023-04-12T12:42:43;15.6;40.8
78438;SHT31;67736;51.978;5.656;2023-04-12T12:45:14;15.6;40.3
78438;SHT31;67736;51.978;5.656;2023-04-12T12:47:49;15.6;40.5
78438;SHT31;67736;51.978;5.656;2023-04-12T12:50:21;15.6;41.0
78438;SHT31;67736;51.978;5.656;2023-04-12T12:52:52;15.6;42.4
78438;SHT31;67736;51.978;5.656;2023-04-12T12:55:23;15.6;42.2
78438;SHT31;67736;51.978;5.656;2023-04-12T12:57:54;15.6;41.5
78438;SHT31;67736;51.978;5.656;2023-04-12T13:00:27;15.6;39.3
78438;SHT31;67736;51.978;5.656;2023-04-12T13:02:58;15.6;39.3
78438;SHT31;67736;51.978;5.656;2023-04-12T13:05:28;15.6;39.9
78438;SHT31;67736;51.978;5.656;2023-04-12T13:07:57;15.5;39.8
78438;SHT31;67736;51.978;5.656;2023-04-12T13:10:27;15.5;39.9
78438;SHT31;67736;51.978;5.656;2023-04-12T13:12:57;15.5;39.5
78438;SHT31;67736;51.978;5.656;2023-04-12T13:15:27;15.5;39.5
78438;SHT31;67736;51.978;5.656;2023-04-12T13:17:57;15.4;40.3
78438;SHT31;67736;51.978;5.656;2023-04-12T13:20:27;15.4;41.3
78438;SHT31;67736;51.978;5.656;2023-04-12T13:22:57;15.4;40.3
78438;SHT31;67736;51.978;5.656;2023-04-12T13:25:27;15.3;40.6
78438;SHT31;67736;51.978;5.656;2023-04-12T13:27:57;15.3;41.3
78438;SHT31;67736;51.978;5.656;2023-04-12T13:30:26;15.3;41.2
78438;SHT31;67736;51.978;5.656;2023-04-12T13:32:56;15.2;41.7
78438;SHT31;67736;51.978;5.656;2023-04-12T13:35:25;15.2;42.2
78438;SHT31;67736;51.978;5.656;2023-04-12T13:37:55;15.2;42.3
78438;SHT31;67736;51.978;5.656;2023-04-12T13:40:24;15.1;42.1
78438;SHT31;67736;51.978;5.656;2023-04-12T13:42:54;15.1;41.9
78438;SHT31;67736;51.978;5.656;2023-04-12T13:45:23;15.0;42.2
78438;SHT31;67736;51.978;5.656;2023-04-12T13:47:53;15.0;42.6
78438;SHT31;67736;51.978;5.656;2023-04-12T13:50:23;14.9;43.6
78438;SHT31;67736;51.978;5.656;2023-04-12T13:52:53;14.9;42.7
78438;SHT31;67736;51.978;5.656;2023-04-12T13:55:23;14.9;42.9
78438;SHT31;67736;51.978;5.656;2023-04-12T13:57:52;14.8;42.8
78438;SHT31;67736;51.978;5.656;2023-04-12T14:00:22;14.8;43.5
78438;SHT31;67736;51.978;5.656;2023-04-12T14:02:53;14.8;43.8
78438;SHT31;67736;51.978;5.656;2023-04-12T14:05:22;14.8;44.7
78438;SHT31;67736;51.978;5.656;2023-04-12T14:07:52;14.8;44.1
78438;SHT31;67736;51.978;5.656;2023-04-12T14:10:22;14.8;44.3
78438;SHT31;67736;51.978;5.656;2023-04-12T14:12:52;14.8;43.7
78438;SHT31;67736;51.978;5.656;2023-04-12T14:15:22;14.8;44.7
78438;SHT31;67736;51.978;5.656;2023-04-12T14:17:51;14.8;44.3
78438;SHT31;67736;51.978;5.656;2023-04-12T14:20:21;14.7;45.2
78438;SHT31;67736;51.978;5.656;2023-04-12T14:22:51;14.7;45.8
78438;SHT31;67736;51.978;5.656;2023-04-12T14:25:22;14.7;47.0
78438;SHT31;67736;51.978;5.656;2023-04-12T14:27:52;14.6;45.8
78438;SHT31;67736;51.978;5.656;2023-04-12T14:30:21;14.6;45.9
78438;SHT31;67736;51.978;5.656;2023-04-12T14:32:51;14.6;46.8
78438;SHT31;67736;51.978;5.656;2023-04-12T14:35:21;14.6;46.2
78438;SHT31;67736;51.978;5.656;2023-04-12T14:37:51;14.5;46.8
78438;SHT31;67736;51.978;5.656;2023-04-12T14:40:21;14.5;46.9
78438;SHT31;67736;51.978;5.656;2023-04-12T14:42:50;14.5;46.7
78438;SHT31;67736;51.978;5.656;2023-04-12T14:45:20;14.4;46.6
78438;SHT31;67736;51.978;5.656;2023-04-12T14:47:49;14.4;47.1
78438;SHT31;67736;51.978;5.656;2023-04-12T14:50:19;14.4;47.3
78438;SHT31;67736;51.978;5.656;2023-04-12T14:52:49;14.4;47.2
78438;SHT31;67736;51.978;5.656;2023-04-12T14:55:19;14.3;47.7
78438;SHT31;67736;51.978;5.656;2023-04-12T14:57:49;14.3;46.5
78438;SHT31;67736;51.978;5.656;2023-04-12T15:00:19;14.3;47.2
78438;SHT31;67736;51.978;5.656;2023-04-12T15:02:49;14.2;48.2
78438;SHT31;67736;51.978;5.656;2023-04-12T15:05:19;14.2;48.1
78438;SHT31;67736;51.978;5.656;2023-04-12T15:07:48;14.1;49.6
78438;SHT31;67736;51.978;5.656;2023-04-12T15:10:20;14.1;49.6
78438;SHT31;67736;51.978;5.656;2023-04-12T15:12:51;14.0;49.0
78438;SHT31;67736;51.978;5.656;2023-04-12T15:15:21;13.9;49.6
78438;SHT31;67736;51.978;5.656;2023-04-12T15:17:50;13.9;49.6
78438;SHT31;67736;51.978;5.656;2023-04-12T15:20:20;13.8;50.7
78438;SHT31;67736;51.978;5.656;2023-04-12T15:22:49;13.7;50.4
78438;SHT31;67736;51.978;5.656;2023-04-12T15:25:20;13.6;51.5
78438;SHT31;67736;51.978;5.656;2023-04-12T15:27:50;13.6;49.3
78438;SHT31;67736;51.978;5.656;2023-04-12T15:30:21;13.5;48.9
78438;SHT31;67736;51.978;5.656;2023-04-12T15:32:51;13.4;48.3
78438;SHT31;67736;51.978;5.656;2023-04-12T15:35:20;13.3;48.5
78438;SHT31;67736;51.978;5.656;2023-04-12T15:37:51;13.3;49.2
78438;SHT31;67736;51.978;5.656;2023-04-12T15:40:21;13.2;49.4
78438;SHT31;67736;51.978;5.656;2023-04-12T15:42:51;13.2;48.8
78438;SHT31;67736;51.978;5.656;2023-04-12T15:45:21;13.1;48.7
78438;SHT31;67736;51.978;5.656;2023-04-12T15:47:51;13.1;48.6
78438;SHT31;67736;51.978;5.656;2023-04-12T15:50:22;13.1;48.5
78438;SHT31;67736;51.978;5.656;2023-04-12T15:52:52;13.0;49.1
78438;SHT31;67736;51.978;5.656;2023-04-12T15:55:22;13.0;49.3
78438;SHT31;67736;51.978;5.656;2023-04-12T15:57:52;13.0;49.5
78438;SHT31;67736;51.978;5.656;2023-04-12T16:00:22;12.9;49.5
78438;SHT31;67736;51.978;5.656;2023-04-12T16:02:53;12.9;49.4
78438;SHT31;67736;51.978;5.656;2023-04-12T16:05:25;12.9;50.1
78438;SHT31;67736;51.978;5.656;2023-04-12T16:07:56;12.9;51.1
78438;SHT31;67736;51.978;5.656;2023-04-12T16:10:26;12.9;51.7
78438;SHT31;67736;51.978;5.656;2023-04-12T16:12:56;12.9;50.9
78438;SHT31;67736;51.978;5.656;2023-04-12T16:15:26;12.9;51.3
78438;SHT31;67736;51.978;5.656;2023-04-12T16:18:06;12.9;50.8
78438;SHT31;67736;51.978;5.656;2023-04-12T16:20:35;12.9;50.2
78438;SHT31;67736;51.978;5.656;2023-04-12T16:23:07;12.9;49.9
78438;SHT31;67736;51.978;5.656;2023-04-12T16:25:37;12.9;50.3
78438;SHT31;67736;51.978;5.656;2023-04-12T16:28:07;12.9;50.3
78438;SHT31;67736;51.978;5.656;2023-04-12T16:30:38;12.9;51.1